Time;durP1;ratioP1;P1;durP2;ratioP2;P2;SDS_P1;SDS_P2;PMS_P1;PMS_P2;Temp;Humidity;BMP_temperature;BMP_pressure;BME280_temperature;BME280_humidity;BME280_pressure;Samples;Min_cycle;Max_cycle;Signal;HPM_P1;HPM_P2
2021/12/11 00:02:10;;;;;;;1999.90;999.90;;;;;;;1.86;91.44;162893.06;5045875;28;20053;-67
2021/12/11 00:04:40;;;;;;;1999.90;999.90;;;;;;;1.72;91.02;162857.47;5037776;28;20056;-67
2021/12/11 00:07:11;;;;;;;1999.90;999.90;;;;;;;1.79;90.90;162873.88;5039622;28;20049;-67
2021/12/11 00:09:43;;;;;;;1999.90;999.90;;;;;;;1.56;91.11;162813.66;5039124;28;20104;-67
2021/12/11 00:12:19;;;;;;;1999.90;999.90;;;;;;;1.61;90.94;162827.38;5041352;28;20095;-67
2021/12/11 00:14:49;;;;;;;1999.90;999.90;;;;;;;1.58;91.65;162819.16;5033822;28;20080;-67
2021/12/11 00:17:24;;;;;;;1999.90;999.90;;;;;;;1.58;91.39;162819.16;5036355;28;20107;-67
2021/12/11 00:19:51;;;;;;;1999.90;999.90;;;;;;;1.70;91.48;162852.00;5040317;28;20341;-67
2021/12/11 00:22:21;;;;;;;1999.90;999.90;;;;;;;1.72;91.32;162857.47;5036855;28;20057;-67
2021/12/11 00:24:49;;;;;;;1999.90;999.90;;;;;;;1.65;91.68;162838.28;5044345;28;20126;-67
2021/12/11 00:27:23;;;;;;;1999.90;999.90;;;;;;;1.79;91.25;162875.28;5036045;28;20161;-67
2021/12/11 00:29:51;;;;;;;1999.90;999.90;;;;;;;1.83;90.95;162884.84;5038475;28;20513;-67
2021/12/11 00:32:21;;;;;;;1999.90;999.90;;;;;;;1.81;91.60;162880.72;5042126;28;20049;-67
2021/12/11 00:34:48;;;;;;;1999.90;999.90;;;;;;;1.95;91.27;162917.72;5044944;28;20338;-67
2021/12/11 00:37:18;;;;;;;1999.90;999.90;;;;;;;1.89;90.71;162901.25;5030857;28;20470;-67
2021/12/11 00:39:51;;;;;;;1999.90;999.90;;;;;;;2.02;90.93;162935.50;5040564;28;20119;-67
2021/12/11 00:42:21;;;;;;;1999.90;999.90;;;;;;;1.91;91.21;162908.13;5039546;28;20158;-67
2021/12/11 00:44:51;;;;;;;1999.90;999.90;;;;;;;1.86;91.06;162893.06;5041401;28;20045;-67
2021/12/11 00:47:30;;;;;;;1999.90;999.90;;;;;;;1.72;91.65;162857.47;5031040;28;20099;-67
2021/12/11 00:50:10;;;;;;;1999.90;999.90;;;;;;;1.75;91.69;162864.31;5037950;28;20132;-67
2021/12/11 00:52:45;;;;;;;1999.90;999.90;;;;;;;1.79;92.04;162873.88;5038617;28;20076;-67
2021/12/11 00:55:32;;;;;;;1999.90;999.90;;;;;;;1.74;92.22;162861.56;5037512;28;20461;-67
2021/12/11 00:58:06;;;;;;;1999.90;999.90;;;;;;;1.81;92.38;162880.72;5040444;28;20264;-67
2021/12/11 01:00:55;;;;;;;1999.90;999.90;;;;;;;1.99;92.06;162928.66;5039268;28;20061;-67
2021/12/11 01:03:33;;;;;;;1999.90;999.90;;;;;;;1.98;91.97;162925.94;5035137;28;20430;-68
2021/12/11 01:06:10;;;;;;;1999.90;999.90;;;;;;;2.08;92.23;162953.31;5037670;28;20113;-67
2021/12/11 01:08:41;;;;;;;1999.90;999.90;;;;;;;1.85;92.33;162890.34;5046856;28;20053;-67
2021/12/11 01:11:11;;;;;;;1999.90;999.90;;;;;;;1.80;93.35;162877.97;5041765;28;20048;-67
2021/12/11 01:13:46;;;;;;;1999.90;999.90;;;;;;;1.65;93.38;162838.28;5033675;28;20087;-67
2021/12/11 01:16:15;;;;;;;1999.90;999.90;;;;;;;1.58;94.06;162820.50;5039649;28;20057;-67
2021/12/11 01:18:48;;;;;;;1999.90;999.90;;;;;;;1.47;94.62;162789.03;5038040;28;20046;-67
2021/12/11 01:21:43;;;;;;;1999.90;999.90;;;;;;;1.42;95.38;162776.72;5033143;28;20126;-67
2021/12/11 01:24:41;;;;;;;1999.90;999.90;;;;;;;1.51;95.45;162800.00;5035895;28;20066;-67
2021/12/11 01:27:11;;;;;;;1999.90;999.90;;;;;;;1.78;94.26;162871.19;5039015;28;20099;-67
2021/12/11 01:29:38;;;;;;;1999.90;999.90;;;;;;;1.59;94.63;162821.88;5037831;28;20468;-67
2021/12/11 01:32:07;;;;;;;1999.90;999.90;;;;;;;1.53;94.75;162805.44;5035853;28;20080;-67
2021/12/11 01:34:34;;;;;;;1999.90;999.90;;;;;;;1.73;94.70;162858.88;5040260;28;20100;-67
2021/12/11 01:37:02;;;;;;;1999.90;999.90;;;;;;;1.35;95.46;162757.56;5034815;28;20107;-67
2021/12/11 01:39:32;;;;;;;1999.90;999.90;;;;;;;1.49;96.40;162794.50;5035621;28;20438;-68
2021/12/11 01:42:00;;;;;;;1999.90;999.90;;;;;;;1.40;95.69;162772.63;5033533;28;20107;-67
2021/12/11 01:44:33;;;;;;;1999.90;999.90;;;;;;;1.57;95.56;162817.75;5037306;28;20442;-67
2021/12/11 01:47:02;;;;;;;1999.90;999.90;;;;;;;1.54;95.05;162808.19;5041136;28;20441;-67
2021/12/11 01:49:30;;;;;;;1999.90;999.90;;;;;;;1.56;95.06;162813.66;5041524;28;20049;-67
2021/12/11 01:52:02;;;;;;;1999.90;999.90;;;;;;;1.73;94.58;162858.88;5041607;28;20426;-67
2021/12/11 01:54:33;;;;;;;1999.90;999.90;;;;;;;1.78;94.04;162872.53;5037915;28;20041;-67
2021/12/11 01:57:10;;;;;;;1999.90;999.90;;;;;;;1.75;94.59;162865.66;5039044;28;20049;-67
2021/12/11 01:59:40;;;;;;;1999.90;999.90;;;;;;;1.94;93.96;162914.97;5044828;28;20614;-67
2021/12/11 02:02:19;;;;;;;1999.90;999.90;;;;;;;2.06;93.71;162946.47;5035962;28;20080;-67
2021/12/11 02:04:49;;;;;;;1999.90;999.90;;;;;;;1.98;93.97;162925.94;5037678;28;20045;-67
2021/12/11 02:07:37;;;;;;;1999.90;999.90;;;;;;;1.93;93.79;162912.22;5035382;28;20053;-67
2021/12/11 02:10:16;;;;;;;1999.90;999.90;;;;;;;2.09;93.61;162956.03;5045906;28;20049;-67
2021/12/11 02:12:44;;;;;;;1999.90;999.90;;;;;;;2.11;93.16;162961.53;5042369;28;20049;-67
2021/12/11 02:15:15;;;;;;;1999.90;999.90;;;;;;;2.16;92.97;162972.47;5041054;28;20064;-67
2021/12/11 02:17:53;;;;;;;1999.90;999.90;;;;;;;2.18;92.65;162977.97;5039350;28;20053;-67
2021/12/11 02:20:27;;;;;;;1999.90;999.90;;;;;;;2.21;92.67;162986.19;5040478;28;20323;-67
2021/12/11 02:22:55;;;;;;;1999.90;999.90;;;;;;;2.20;92.53;162984.78;5043205;28;20053;-67
2021/12/11 02:25:27;;;;;;;1999.90;999.90;;;;;;;2.02;92.27;162936.84;5031249;28;20096;-68
2021/12/11 02:28:13;;;;;;;;;;;;;;;1.76;93.60;162868.41;5042511;28;20122;-67
2021/12/11 02:31:27;;;;;;;1999.90;999.90;;;;;;;1.89;93.40;162901.25;5037552;28;19951;-67
2021/12/11 02:34:06;;;;;;;1999.90;999.90;;;;;;;1.88;93.40;162899.91;5037441;28;20049;-67
2021/12/11 02:36:47;;;;;;;1999.90;999.90;;;;;;;1.73;94.08;162860.22;5041004;28;20362;-67
2021/12/11 02:39:29;;;;;;;1999.90;999.90;;;;;;;2.00;93.45;162930.06;5037353;28;20056;-67
2021/12/11 02:42:04;;;;;;;1999.90;999.90;;;;;;;2.16;93.09;162972.47;5037236;28;20049;-67
2021/12/11 02:44:33;;;;;;;1999.90;999.90;;;;;;;2.22;92.69;162988.88;5046216;28;20405;-68
2021/12/11 02:47:16;;;;;;;1999.90;999.90;;;;;;;2.31;92.64;163012.16;5035386;28;20134;-67
2021/12/11 02:50:00;;;;;;;1999.90;999.90;;;;;;;2.26;92.46;162999.84;5048917;28;20041;-67
2021/12/11 02:52:45;;;;;;;1999.90;999.90;;;;;;;2.33;92.32;163017.69;5039312;28;20046;-67
2021/12/11 02:55:18;;;;;;;1999.90;999.90;;;;;;;2.30;92.21;163010.81;5042672;28;20077;-67
2021/12/11 02:57:50;;;;;;;1999.90;999.90;;;;;;;2.05;93.22;162943.72;5037198;28;20053;-67
2021/12/11 03:00:23;;;;;;;1999.90;999.90;;;;;;;2.06;92.78;162947.81;5037423;28;20081;-67
2021/12/11 03:03:01;;;;;;;1999.90;999.90;;;;;;;2.05;93.23;162943.72;5044433;28;20118;-67
2021/12/11 03:05:37;;;;;;;1999.90;999.90;;;;;;;2.14;92.92;162967.00;5040799;28;20080;-67
2021/12/11 03:08:06;;;;;;;1999.90;999.90;;;;;;;2.20;92.41;162984.78;5039431;28;20057;-67
2021/12/11 03:10:34;;;;;;;1999.90;999.90;;;;;;;2.17;92.18;162975.22;5038917;28;20099;-67
2021/12/11 03:13:01;;;;;;;1999.90;999.90;;;;;;;2.14;92.94;162967.00;5040148;28;20099;-67
2021/12/11 03:15:28;;;;;;;1999.90;999.90;;;;;;;2.01;93.54;162934.16;5043844;28;20275;-67
2021/12/11 03:17:55;;;;;;;1999.90;999.90;;;;;;;2.04;92.93;162940.97;5074136;28;20077;-67
2021/12/11 03:20:23;;;;;;;1999.90;999.90;;;;;;;2.23;93.26;162991.63;5032909;28;20106;-67
2021/12/11 03:22:51;;;;;;;1999.90;999.90;;;;;;;2.10;93.54;162958.78;5044928;28;20093;-67
2021/12/11 03:25:22;;;;;;;1999.90;999.90;;;;;;;2.02;93.12;162935.50;5040159;28;20050;-67
2021/12/11 03:27:49;;;;;;;1999.90;999.90;;;;;;;2.09;93.98;162954.69;5035084;28;20082;-67
2021/12/11 03:30:23;;;;;;;1999.90;999.90;;;;;;;2.15;93.10;162971.09;5050556;28;20085;-67
2021/12/11 03:32:53;;;;;;;1999.90;999.90;;;;;;;2.05;93.83;162945.06;5039664;28;20148;-67
2021/12/11 03:35:20;;;;;;;1999.90;999.90;;;;;;;2.10;94.08;162958.78;5039309;28;20076;-67
2021/12/11 03:37:47;;;;;;;1999.90;999.90;;;;;;;1.93;94.00;162912.22;5045082;28;20155;-67
2021/12/11 03:40:15;;;;;;;1999.90;999.90;;;;;;;2.05;94.50;162943.72;5036274;28;20604;-67
2021/12/11 03:42:45;;;;;;;1999.90;999.90;;;;;;;1.88;94.75;162899.91;5044504;28;20072;-67
2021/12/11 03:45:16;;;;;;;1999.90;999.90;;;;;;;2.00;94.92;162930.06;5035003;28;20042;-67
2021/12/11 03:47:48;;;;;;;1999.90;999.90;;;;;;;2.21;94.21;162987.53;5041340;28;20406;-67
2021/12/11 03:50:17;;;;;;;1999.90;999.90;;;;;;;2.17;94.39;162975.22;5041657;28;20053;-67
2021/12/11 03:52:46;;;;;;;1999.90;999.90;;;;;;;2.08;93.87;162953.31;5046433;28;20076;-67
2021/12/11 03:55:18;;;;;;;1999.90;999.90;;;;;;;1.89;95.32;162901.25;5038619;28;20142;-67
2021/12/11 03:57:45;;;;;;;1999.90;999.90;;;;;;;2.03;94.58;162938.25;5039156;28;20083;-67
2021/12/11 04:00:18;;;;;;;1999.90;999.90;;;;;;;1.92;95.11;162909.47;5035811;28;20072;-67
2021/12/11 04:02:45;;;;;;;1999.90;999.90;;;;;;;1.98;95.39;162925.94;5035434;28;20081;-67
2021/12/11 04:05:12;;;;;;;1999.90;999.90;;;;;;;2.03;94.47;162938.25;5043722;28;20076;-67
2021/12/11 04:07:47;;;;;;;1999.90;999.90;;;;;;;2.08;94.73;162953.31;5042799;28;20049;-67
2021/12/11 04:10:17;;;;;;;1999.90;999.90;;;;;;;2.07;94.53;162950.56;5040180;28;20087;-67
2021/12/11 04:12:44;;;;;;;1999.90;999.90;;;;;;;2.09;94.26;162954.69;5041408;28;20060;-67
2021/12/11 04:15:12;;;;;;;1999.90;999.90;;;;;;;2.03;94.35;162938.25;5046483;28;20584;-67
2021/12/11 04:17:39;;;;;;;1999.90;999.90;;;;;;;1.47;96.50;162790.38;5034429;28;20450;-67
2021/12/11 04:20:12;;;;;;;1999.90;999.90;;;;;;;1.58;97.25;162819.16;5038927;28;20385;-67
2021/12/11 04:22:39;;;;;;;1999.90;999.90;;;;;;;1.67;97.35;162843.78;5037319;28;20095;-67
2021/12/11 04:25:08;;;;;;;1999.90;999.90;;;;;;;2.07;95.89;162950.56;5045004;28;20442;-67
2021/12/11 04:27:36;;;;;;;1999.90;999.90;;;;;;;2.15;95.51;162969.75;5044205;28;20105;-67
2021/12/11 04:30:09;;;;;;;1999.90;999.90;;;;;;;2.10;95.01;162958.78;5044504;28;20049;-67
2021/12/11 04:32:37;;;;;;;1999.90;999.90;;;;;;;1.50;97.31;162797.25;5035509;28;20106;-67
2021/12/11 04:35:08;;;;;;;1999.90;999.90;;;;;;;1.33;99.43;162753.44;5034213;28;20461;-67
2021/12/11 04:37:36;;;;;;;1999.90;999.90;;;;;;;1.43;100.00;162778.06;5040679;28;20049;-67
2021/12/11 04:40:09;;;;;;;1999.90;999.90;;;;;;;1.37;100.00;162763.00;5036604;28;20075;-67
2021/12/11 04:45:09;;;;;;;1999.90;999.90;;;;;;;1.58;99.64;162819.16;5035124;28;20427;-67
2021/12/11 04:47:47;;;;;;;1999.90;999.90;;;;;;;1.55;99.43;162810.94;5043375;28;20436;-67
2021/12/11 04:50:33;;;;;;;1999.90;999.90;;;;;;;1.45;99.78;162783.59;5040159;28;20056;-67
2021/12/11 04:53:00;;;;;;;1999.90;999.90;;;;;;;1.66;99.68;162841.03;5038722;28;20118;-67
2021/12/11 04:55:59;;;;;;;1999.90;999.90;;;;;;;1.83;98.01;162884.84;5036374;28;20046;-67
2021/12/11 05:01:33;;;;;;;1999.90;999.90;;;;;;;1.85;98.13;162891.69;5044260;28;20073;-67
2021/12/11 05:06:52;;;;;;;1999.90;999.90;;;;;;;2.51;95.75;163065.59;5037027;28;20366;-67
2021/12/11 05:09:34;;;;;;;1999.90;999.90;;;;;;;2.56;94.82;163080.69;5039637;28;20091;-67
2021/12/11 05:12:32;;;;;;;1999.90;999.90;;;;;;;2.42;95.23;163043.66;5041409;28;20098;-67
2021/12/11 05:15:00;;;;;;;1999.90;999.90;;;;;;;2.59;95.07;163087.50;5043613;28;20092;-67
2021/12/11 05:17:27;;;;;;;1999.90;999.90;;;;;;;2.54;94.75;163075.16;5037853;28;20111;-67
2021/12/11 05:19:54;;;;;;;1999.90;999.90;;;;;;;2.22;95.58;162988.88;5036321;28;20466;-67
2021/12/11 05:22:22;;;;;;;1999.90;999.90;;;;;;;2.37;95.19;163028.66;5041897;28;20052;-67
2021/12/11 05:24:52;;;;;;;1999.90;999.90;;;;;;;2.52;94.36;163068.38;5041898;28;20044;-67
2021/12/11 05:27:20;;;;;;;1999.90;999.90;;;;;;;2.52;94.43;163069.72;5046024;28;20095;-67
2021/12/11 05:29:48;;;;;;;1999.90;999.90;;;;;;;2.18;96.08;162977.97;5037870;28;20050;-67
2021/12/11 05:32:23;;;;;;;1999.90;999.90;;;;;;;2.27;96.29;163003.97;5038806;28;20084;-67
2021/12/11 05:34:50;;;;;;;1999.90;999.90;;;;;;;2.49;95.21;163061.50;5034133;28;20056;-67
2021/12/11 05:37:17;;;;;;;1999.90;999.90;;;;;;;2.17;96.51;162976.56;5046501;28;20086;-67
2021/12/11 05:39:44;;;;;;;1999.90;999.90;;;;;;;2.15;96.37;162969.75;5037962;28;20049;-67
2021/12/11 05:42:11;;;;;;;1999.90;999.90;;;;;;;2.28;96.96;163005.34;5035853;28;20065;-67
2021/12/11 05:44:38;;;;;;;1999.90;999.90;;;;;;;2.15;97.03;162969.75;5038537;28;20081;-66
2021/12/11 05:47:05;;;;;;;1999.90;999.90;;;;;;;2.16;96.88;162973.88;5037789;28;20052;-66
2021/12/11 05:49:34;;;;;;;1999.90;999.90;;;;;;;1.83;98.05;162884.84;5041746;28;20107;-66
2021/12/11 05:52:05;;;;;;;1999.90;999.90;;;;;;;2.16;97.39;162972.47;5034842;28;20135;-67
2021/12/11 05:54:32;;;;;;;1999.90;999.90;;;;;;;2.49;95.88;163060.09;5038249;28;20080;-67
2021/12/11 05:57:03;;;;;;;1999.90;999.90;;;;;;;2.67;95.05;163108.09;5040492;28;20091;-67
2021/12/11 05:59:31;;;;;;;1999.90;999.90;;;;;;;2.80;94.53;163145.06;5045497;28;20107;-67
2021/12/11 06:02:08;;;;;;;1999.90;999.90;;;;;;;2.89;93.67;163166.94;5035055;28;20041;-66
2021/12/11 06:04:38;;;;;;;1999.90;999.90;;;;;;;3.03;93.58;163205.31;5041770;28;20487;-66
2021/12/11 06:07:07;;;;;;;1999.90;999.90;;;;;;;3.20;92.41;163250.56;5036329;28;20049;-67
2021/12/11 06:09:36;;;;;;;1999.90;999.90;;;;;;;3.29;92.18;163273.81;5036235;28;20478;-66
2021/12/11 06:12:08;;;;;;;1999.90;999.90;;;;;;;3.38;91.46;163298.53;5042436;28;20048;-66
2021/12/11 06:14:36;;;;;;;1999.90;999.90;;;;;;;3.18;91.92;163246.41;5032936;28;20085;-67
2021/12/11 06:17:05;;;;;;;1999.90;999.90;;;;;;;3.28;91.79;163271.13;5040960;28;20049;-67
2021/12/11 06:19:33;;;;;;;1999.90;999.90;;;;;;;3.32;91.54;163282.03;5036495;28;20057;-66
2021/12/11 06:22:01;;;;;;;1999.90;999.90;;;;;;;3.21;91.89;163251.91;5050894;28;20087;-67
2021/12/11 06:24:28;;;;;;;1999.90;999.90;;;;;;;3.03;92.68;163205.31;5036793;28;20084;-66
2021/12/11 06:26:56;;;;;;;1999.90;999.90;;;;;;;3.13;92.22;163231.38;5043139;28;20073;-66
2021/12/11 06:29:23;;;;;;;1999.90;999.90;;;;;;;3.30;91.64;163277.94;5038738;28;20115;-66
2021/12/11 06:31:51;;;;;;;1999.90;999.90;;;;;;;3.34;90.92;163288.91;5045604;28;20081;-67
2021/12/11 06:34:18;;;;;;;1999.90;999.90;;;;;;;3.43;91.19;163310.88;5040494;28;20057;-66
2021/12/11 06:36:46;;;;;;;1999.90;999.90;;;;;;;3.40;91.36;163302.66;5035842;28;20068;-67
2021/12/11 06:39:20;;;;;;;1999.90;999.90;;;;;;;3.39;91.41;163301.25;5039583;28;20049;-67
2021/12/11 06:41:50;;;;;;;1999.90;999.90;;;;;;;3.46;91.36;163319.09;5040135;28;20563;-66
2021/12/11 06:44:19;;;;;;;1999.90;999.90;;;;;;;2.95;92.66;163184.78;5049850;28;20083;-67
2021/12/11 06:46:48;;;;;;;1999.90;999.90;;;;;;;3.03;93.24;163205.31;5043024;28;20586;-66
2021/12/11 06:49:15;;;;;;;1999.90;999.90;;;;;;;3.15;92.76;163238.19;5041219;28;20083;-67
2021/12/11 06:51:42;;;;;;;1999.90;999.90;;;;;;;3.13;92.23;163231.38;5039651;28;20049;-66
2021/12/11 06:54:10;;;;;;;1999.90;999.90;;;;;;;3.16;92.49;163240.94;5041673;28;20068;-66
2021/12/11 06:56:38;;;;;;;1999.90;999.90;;;;;;;3.29;92.18;163275.22;5045881;28;20080;-67
2021/12/11 06:59:05;;;;;;;1999.90;999.90;;;;;;;3.13;92.03;163232.72;5039179;28;20045;-66
2021/12/11 07:01:34;;;;;;;1999.90;999.90;;;;;;;3.10;91.99;163223.16;5036438;28;20049;-66
2021/12/11 07:04:04;;;;;;;1999.90;999.90;;;;;;;3.23;92.22;163257.38;5038651;28;20144;-67
2021/12/11 07:06:31;;;;;;;1999.90;999.90;;;;;;;3.33;91.21;163286.19;5041561;28;20049;-67
2021/12/11 07:09:00;;;;;;;1999.90;999.90;;;;;;;3.56;90.53;163345.09;5039774;28;20298;-66
2021/12/11 07:11:27;;;;;;;1999.90;999.90;;;;;;;3.59;90.08;163354.72;5040539;28;20084;-66
2021/12/11 07:13:53;;;;;;;1999.90;999.90;;;;;;;3.45;90.36;163317.69;5039771;28;21166;-66
2021/12/11 07:16:20;;;;;;;1999.90;999.90;;;;;;;3.52;90.14;163336.88;5043203;28;20435;-66
2021/12/11 07:18:47;;;;;;;1999.90;999.90;;;;;;;3.20;90.05;163250.56;5044747;28;20381;-66
2021/12/11 07:21:14;;;;;;;1999.90;999.90;;;;;;;3.40;90.43;163304.00;5044316;28;20405;-66
2021/12/11 07:23:45;;;;;;;1999.90;999.90;;;;;;;3.58;89.36;163351.97;5067856;28;20100;-66
2021/12/11 07:26:16;;;;;;;;;;;;;;;3.59;88.98;163353.31;5036897;28;20092;-66
2021/12/11 07:28:47;;;;;;;1999.90;999.90;;;;;;;3.60;88.93;163356.06;5043581;28;20250;-66
2021/12/11 07:31:14;;;;;;;1999.90;999.90;;;;;;;3.55;88.93;163343.75;5043800;28;20053;-66
2021/12/11 07:33:41;;;;;;;1999.90;999.90;;;;;;;3.64;88.69;163367.03;5048726;28;20045;-66
2021/12/11 07:36:09;;;;;;;1999.90;999.90;;;;;;;3.26;89.07;163265.59;5039477;28;20042;-66
2021/12/11 07:38:36;;;;;;;1999.90;999.90;;;;;;;3.13;89.00;163231.38;5040604;28;20045;-66
2021/12/11 07:41:06;;;;;;;1999.90;999.90;;;;;;;3.51;88.42;163332.75;5040032;28;20067;-66
2021/12/11 07:43:34;;;;;;;1999.90;999.90;;;;;;;3.33;88.18;163284.78;5039730;28;20084;-66
2021/12/11 07:46:02;;;;;;;1999.90;999.90;;;;;;;3.41;88.43;163305.34;5043858;28;20415;-66
2021/12/11 07:48:29;;;;;;;1999.90;999.90;;;;;;;3.76;87.87;163399.94;5034601;28;20099;-66
2021/12/11 07:50:56;;;;;;;1999.90;999.90;;;;;;;3.86;87.20;163427.34;5039577;28;20091;-66
2021/12/11 07:53:24;;;;;;;1999.90;999.90;;;;;;;3.93;87.02;163445.22;5045332;28;20410;-66
2021/12/11 07:55:51;;;;;;;1999.90;999.90;;;;;;;3.91;86.72;163438.34;5044425;28;20080;-66
2021/12/11 07:58:19;;;;;;;1999.90;999.90;;;;;;;3.73;87.33;163390.34;5040897;28;20084;-66
2021/12/11 08:00:47;;;;;;;1999.90;999.90;;;;;;;3.37;87.46;163295.78;5038650;28;20107;-66
2021/12/11 08:03:15;;;;;;;1999.90;999.90;;;;;;;3.53;87.47;163338.28;5040771;28;20052;-66
2021/12/11 08:05:44;;;;;;;1999.90;999.90;;;;;;;3.29;87.49;163275.22;5036653;28;20115;-66
2021/12/11 08:08:11;;;;;;;1999.90;999.90;;;;;;;3.45;87.93;163316.31;5039491;28;20438;-65
2021/12/11 08:10:42;;;;;;;1999.90;999.90;;;;;;;3.37;87.55;163295.78;5034798;28;20446;-65
2021/12/11 08:13:10;;;;;;;1999.90;999.90;;;;;;;3.28;87.75;163271.13;5038135;28;20411;-66
2021/12/11 08:15:38;;;;;;;1999.90;999.90;;;;;;;3.24;87.80;163261.50;5044196;28;20081;-65
2021/12/11 08:18:08;;;;;;;1999.90;999.90;;;;;;;3.40;87.74;163304.00;5043140;28;20049;-65
2021/12/11 08:20:37;;;;;;;1999.90;999.90;;;;;;;3.00;88.20;163198.47;5035238;28;20072;-65
2021/12/11 08:23:04;;;;;;;1999.90;999.90;;;;;;;3.02;88.10;163202.56;5038916;28;20053;-65
2021/12/11 08:25:33;;;;;;;1999.90;999.90;;;;;;;2.93;88.99;163179.31;5039395;28;20342;-65
2021/12/11 08:28:01;;;;;;;1999.90;999.90;;;;;;;3.18;87.88;163246.41;5043854;28;20068;-65
2021/12/11 08:30:30;;;;;;;1999.90;999.90;;;;;;;3.32;87.79;163283.44;5039942;28;20045;-65
2021/12/11 08:32:57;;;;;;;1999.90;999.90;;;;;;;3.48;86.36;163325.94;5046518;28;20470;-66
2021/12/11 08:35:24;;;;;;;1999.90;999.90;;;;;;;3.55;86.71;163343.75;5037975;28;20343;-66
2021/12/11 08:37:53;;;;;;;1999.90;999.90;;;;;;;3.68;86.47;163378.03;5044751;28;20102;-66
2021/12/11 08:40:25;;;;;;;1999.90;999.90;;;;;;;3.25;86.06;163262.91;5044505;28;20389;-66
2021/12/11 08:42:53;;;;;;;1999.90;999.90;;;;;;;3.02;88.17;163201.22;5030117;28;20383;-66
2021/12/11 08:45:24;;;;;;;1999.90;999.90;;;;;;;3.17;88.09;163242.31;5037502;28;20405;-66
2021/12/11 08:47:56;;;;;;;1999.90;999.90;;;;;;;2.83;88.94;163151.91;5039435;28;20453;-65
2021/12/11 08:50:30;;;;;;;1999.90;999.90;;;;;;;2.92;88.96;163176.56;5031560;28;20111;-65
2021/12/11 08:52:58;;;;;;;1999.90;999.90;;;;;;;2.83;89.29;163151.91;5037261;28;20049;-65
2021/12/11 08:55:32;;;;;;;1999.90;999.90;;;;;;;2.82;89.60;163150.50;5042085;28;20084;-66
2021/12/11 08:58:00;;;;;;;1999.90;999.90;;;;;;;3.03;89.68;163205.31;5032252;28;20412;-65
2021/12/11 09:00:36;;;;;;;1999.90;999.90;;;;;;;2.63;90.16;163099.88;5040031;28;20346;-65
2021/12/11 09:03:27;;;;;;;1999.90;999.90;;;;;;;2.26;91.91;162999.84;5039405;28;20057;-66
2021/12/11 09:06:06;;;;;;;1999.90;999.90;;;;;;;2.64;91.23;163101.22;5039039;28;20077;-65
2021/12/11 09:08:49;;;;;;;1999.90;999.90;;;;;;;2.54;91.63;163073.81;5031606;28;20056;-65
2021/12/11 09:11:24;;;;;;;1999.90;999.90;;;;;;;2.61;91.79;163093.00;5033263;28;20058;-65
2021/12/11 09:14:11;;;;;;;1999.90;999.90;;;;;;;2.69;91.04;163114.91;5033972;28;20049;-65
2021/12/11 09:16:51;;;;;;;1999.90;999.90;;;;;;;3.10;88.46;163224.50;5042427;28;20087;-65
2021/12/11 09:19:23;;;;;;;1999.90;999.90;;;;;;;2.81;89.03;163146.41;5033184;28;20105;-65
2021/12/11 09:22:08;;;;;;;1999.90;999.90;;;;;;;3.23;88.94;163257.38;5038349;28;20365;-65
2021/12/11 09:24:42;;;;;;;1999.90;999.90;;;;;;;3.10;88.26;163224.50;5038412;28;20104;-65
2021/12/11 09:27:19;;;;;;;1999.90;999.90;;;;;;;3.34;88.59;163288.91;5043637;28;20088;-65
2021/12/11 09:30:18;;;;;;;1999.90;999.90;;;;;;;3.55;87.18;163342.38;5048288;28;20129;-65
2021/12/11 09:32:57;;;;;;;1999.90;999.90;;;;;;;3.60;87.37;163357.41;5041021;28;20099;-65
2021/12/11 09:35:45;;;;;;;1999.90;999.90;;;;;;;3.58;87.72;163351.97;5043459;28;20098;-65
2021/12/11 09:38:29;;;;;;;1999.90;999.90;;;;;;;3.64;87.54;163367.03;5039464;28;20099;-65
2021/12/11 09:40:56;;;;;;;1999.90;999.90;;;;;;;3.47;87.81;163321.84;5043093;28;20052;-65
2021/12/11 09:43:44;;;;;;;1999.90;999.90;;;;;;;3.74;87.34;163394.47;5037329;28;20097;-65
2021/12/11 09:46:15;;;;;;;1999.90;999.90;;;;;;;3.48;87.46;163325.94;5040867;28;20056;-64
2021/12/11 09:48:44;;;;;;;1999.90;999.90;;;;;;;3.42;88.34;163309.47;5039629;28;20049;-65
2021/12/11 09:51:14;;;;;;;1999.90;999.90;;;;;;;3.47;87.40;163321.84;5044279;28;20118;-65
2021/12/11 09:53:46;;;;;;;1999.90;999.90;;;;;;;3.51;87.65;163332.75;5041567;28;20084;-65
2021/12/11 09:56:32;;;;;;;1999.90;999.90;;;;;;;3.51;88.00;163332.75;5032797;28;20124;-65
2021/12/11 09:59:04;;;;;;;1999.90;999.90;;;;;;;3.25;88.09;163262.91;5041732;28;20092;-65
2021/12/11 10:01:35;;;;;;;1999.90;999.90;;;;;;;3.32;88.29;163282.03;5036370;28;20147;-65
2021/12/11 10:04:12;;;;;;;1999.90;999.90;;;;;;;3.20;88.46;163249.16;5037121;28;20045;-65
2021/12/11 10:07:02;;;;;;;1999.90;999.90;;;;;;;3.10;88.66;163224.50;5034121;28;20499;-65
2021/12/11 10:09:34;;;;;;;1999.90;999.90;;;;;;;3.11;89.41;163227.28;5041603;28;20076;-65
2021/12/11 10:12:07;;;;;;;1999.90;999.90;;;;;;;3.48;87.75;163325.94;5040713;28;20072;-65
2021/12/11 10:14:40;;;;;;;1999.90;999.90;;;;;;;3.67;87.01;163376.63;5039870;28;20048;-65
2021/12/11 10:17:12;;;;;;;1999.90;999.90;;;;;;;3.38;87.46;163298.53;5037249;28;20412;-65
2021/12/11 10:19:40;;;;;;;;;;;;;;;3.34;87.54;163287.56;5036064;28;20056;-65
2021/12/11 10:22:13;;;;;;;1999.90;999.90;;;;;;;3.76;86.53;163399.94;5036363;28;20007;-65
2021/12/11 10:24:41;;;;;;;1999.90;999.90;;;;;;;4.06;85.32;163479.44;5036460;28;20057;-65
2021/12/11 10:27:11;;;;;;;1999.90;999.90;;;;;;;3.94;85.39;163447.91;5038697;28;20040;-65
2021/12/11 10:29:41;;;;;;;1999.90;999.90;;;;;;;3.28;86.60;163272.47;5038365;28;20045;-65
2021/12/11 10:32:20;;;;;;;1999.90;999.90;;;;;;;3.35;87.98;163290.31;5043773;28;20107;-65
2021/12/11 10:34:52;;;;;;;1999.90;999.90;;;;;;;2.95;88.35;163183.44;5041056;28;20081;-65
2021/12/11 10:37:33;;;;;;;1999.90;999.90;;;;;;;3.48;86.98;163325.94;5039814;28;20073;-65
2021/12/11 10:40:07;;;;;;;1999.90;999.90;;;;;;;2.98;86.62;163193.00;5042225;28;20049;-65
2021/12/11 10:42:34;;;;;;;1999.90;999.90;;;;;;;2.91;88.58;163173.81;5031579;28;20310;-65
2021/12/11 10:45:06;;;;;;;1999.90;999.90;;;;;;;3.58;86.92;163351.97;5039639;28;20049;-65
2021/12/11 10:47:41;;;;;;;1999.90;999.90;;;;;;;3.80;85.58;163410.91;5038281;28;20429;-65
2021/12/11 10:50:34;;;;;;;1999.90;999.90;;;;;;;3.94;84.99;163447.91;5038572;28;20099;-66
2021/12/11 10:53:07;;;;;;;1999.90;999.90;;;;;;;4.01;85.16;163467.13;5040565;28;20055;-64
2021/12/11 10:55:35;;;;;;;1999.90;999.90;;;;;;;3.67;84.94;163375.28;5041324;28;20053;-65
2021/12/11 10:58:07;;;;;;;1999.90;999.90;;;;;;;2.70;87.53;163116.28;5026722;28;20137;-64
2021/12/11 11:00:39;;;;;;;1999.90;999.90;;;;;;;2.49;87.83;163061.50;5037087;28;20081;-64
2021/12/11 11:03:06;;;;;;;1999.90;999.90;;;;;;;2.54;88.14;163073.81;5035445;28;20041;-64
2021/12/11 11:05:35;;;;;;;1999.90;999.90;;;;;;;2.75;87.56;163131.31;5034815;28;20275;-64
2021/12/11 11:08:06;;;;;;;1999.90;999.90;;;;;;;3.17;86.73;163243.72;5038006;28;20041;-64
2021/12/11 11:10:36;;;;;;;1999.90;999.90;;;;;;;3.52;85.54;163336.88;5040521;28;20057;-64
2021/12/11 11:13:06;;;;;;;1999.90;999.90;;;;;;;3.63;85.46;163365.69;5043279;28;20429;-64
2021/12/11 11:15:34;;;;;;;1999.90;999.90;;;;;;;3.42;85.17;163308.09;5040157;28;20049;-64
2021/12/11 11:18:02;;;;;;;1999.90;999.90;;;;;;;3.18;86.77;163245.06;5039280;28;20042;-64
2021/12/11 11:20:34;;;;;;;1999.90;999.90;;;;;;;3.33;85.96;163286.19;5039352;28;20473;-64
2021/12/11 11:23:03;;;;;;;1999.90;999.90;;;;;;;3.50;85.40;163331.41;5039220;28;20061;-64
2021/12/11 11:25:33;;;;;;;1999.90;999.90;;;;;;;3.03;85.93;163205.31;5041748;28;20049;-64